No data was retrieved for https://query.yahooapis.com/v1/public/yql?q=select+%2A+from+weather.forecast+where+woeid%3D626045&format=xml&u=c


Notice: Undefined index: in /var/www/html/weather28/wsIconUrl.php on line 132

Warning: A non-numeric value encountered in /var/www/html/weather28/wsIconUrl.php on line 140

Warning: A non-numeric value encountered in /var/www/html/weather28/wsIconUrl.php on line 141

Warning: A non-numeric value encountered in /var/www/html/weather28/wsFunctions.php on line 312

Warning: A non-numeric value encountered in /var/www/html/weather28/wsFunctions.php on line 312

Warning: A non-numeric value encountered in /var/www/html/weather28/wsFunctions.php on line 312

Warning: A non-numeric value encountered in /var/www/html/weather28/wsDataLoad.php on line 210
- Bienvenue sur la Station Météo " Les Brantus " située au Point du Jour, Saint-Nazaire, 44600 -
Pas de vigilance météorologique particulière.    Il n'y a aucun avertissement

Météo Saint-Nazaire.



Visitez nos sites météorologiques autres:

Template documentation
and downloads

And another site



Rapports METAR proximité


Warning: A non-numeric value encountered in /var/www/html/weather28/metar/metarDisplay.php on line 166

Warning: A non-numeric value encountered in /var/www/html/weather28/metar/metarDisplay.php on line 166

Warning: A non-numeric value encountered in /var/www/html/weather28/metar/metarDisplay.php on line 166

Warning: A non-numeric value encountered in /var/www/html/weather28/metar/metarDisplay.php on line 166

Warning: A non-numeric value encountered in /var/www/html/weather28/metar/metarDisplay.php on line 166

Warning: A non-numeric value encountered in /var/www/html/weather28/metar/metarDisplay.php on line 166
   
LFRZ - Saint-Nazaire, France
Mise à jour: 30-03-2020 09:30
Claires  
Claires  
   Vent: NNE 27.8 km/h
Vent: NNE 27.8 km/h
Température: 3°C
éolien: -2°C
Point de rosée: -6°C
Humidité: 52%
Baromètre: 1029 hPa
visibilité: More than 10 km
Détails des nuages: Claires
LFRZ 300730Z AUTO 03015KT CAVOK 03/M06 Q1029
LFPG - Paris, France
Mise à jour: 30-03-2020 09:30
Claires  
Claires  
   Vent: NE 29.6 km/h
Vent: NE 29.6 km/h
Température: 1°C
éolien: -5°C
Point de rosée: -9°C
Humidité: 48%
Baromètre: 1030 hPa
visibilité: More than 10 km
Détails des nuages: Claires
LFPG 300730Z AUTO 04016KT CAVOK 01/M09 Q1030 BECMG 03015G25KT
LFQQ - Lille, France
Mise à jour: 30-03-2020 09:30
Claires  
Claires  
   Vent: NNE 13 km/h
Vent: NNE 13 km/h
Température: 3°C
éolien: -1°C
Point de rosée: -6°C
Humidité: 52%
Baromètre: 1033 hPa
visibilité: More than 10 km
Détails des nuages: Claires
LFQQ 300730Z AUTO 03007KT CAVOK 03/M06 Q1033 NOSIG
BIRK - Reykjavik, Islande
Mise à jour: 30-03-2020 09:00
Nearby Showers, Nuageux  
Nearby Showers, Nuageux  
   Vent: SSO 20.4 km/h
Vent: SSO 20.4 km/h
Température: 5°C
éolien: 1°C
Point de rosée: 1°C
Humidité: 76%
Baromètre: 1040 hPa
Nuageux: Nuageux
visibilité: More than 10 km
Détails des nuages: Nuageux 4000 ft
BIRK 300700Z 20011KT 9999 VCSH OVC040 05/01 Q1040
ENGM - Oslo, Norvège
Mise à jour: 30-03-2020 09:20
Claires  
Claires  
   Vent: ONO 7.4 km/h
Vent: ONO 7.4 km/h
Température: 0°C
éolien: -3°C
Point de rosée: -8°C
Humidité: 55%
Baromètre: 1028 hPa
visibilité: More than 10 km
Détails des nuages: Claires
ENGM 300720Z 29004KT CAVOK M00/M08 Q1028 NOSIG
EGLL - Londres, Royaume-Uni
Mise à jour: 30-03-2020 09:20
Nuageux  
Nuageux  
   Vent: NNO 7.4 km/h
Vent: NNO 7.4 km/h
Température: 4°C
éolien: 2°C
Point de rosée: -2°C
Humidité: 65%
Baromètre: 1036 hPa
Nuageux: Nuageux
visibilité: More than 10 km
Détails des nuages: Nuageux 3800 ft
EGLL 300720Z AUTO 34004KT 310V010 9999 BKN038 04/M02 Q1036 NOSIG
EDDT - Berlin, Allemagne *
Mise à jour: 30-03-2020 09:20
Claires  
Claires  
   Vent: Ouest 16.7 km/h
Vent: Ouest 16.7 km/h
Température: 1°C
éolien: -3°C
Point de rosée: -7°C
Humidité: 56%
Baromètre: 1027 hPa
visibilité: More than 10 km
Détails des nuages: Claires
EDDT 300720Z 26009KT CAVOK 01/M07 Q1027 NOSIG
UUEE - Moscou, Russie
Mise à jour: 30-03-2020 09:00
Nuageux  
Nuageux  
   Vent: NNE 21.7 km/h
Vent: NNE 21.7 km/h
Température: -1°C
éolien: -7°C
Point de rosée: -4°C
Humidité: 80%
Baromètre: 1007 hPa
Nuageux: Nuageux
visibilité: More than 10 km
Détails des nuages: Nuageux 1400 ft
UUEE 300700Z 03006MPS 350V070 9999 OVC014 M01/M04 Q1007 R06R/CLRD62 R06L/CLRD62 NOSIG
LEMD - Madrid, Espagne
Mise à jour: 30-03-2020 09:30
Nuageux  
Nuageux  
   Vent: NE 14.8 km/h<br />Gust to 14.8 km/h
Vent: NE 14.8 km/h
Gust to 14.8 km/h
Température: 6°C
éolien: 3°C
Point de rosée: -1°C
Humidité: 61%
Baromètre: 1014 hPa
Nuageux: Nuageux
visibilité: More than 10 km
Détails des nuages: Partiellement nuageux 7500 ft,
Nuageux 8000 ft
LEMD 300730Z 05008G18KT 360V110 9999 SCT075 BKN080 06/M01 Q1014 NOSIG
LIRF - Rome, Italie
Mise à jour: 30-03-2020 09:20
Claires  
Claires  
   Vent: varie 3.7 km/h
Vent: varie 3.7 km/h
Température: 11°C
Point de rosée: 11°C
Humidité: 100%
Baromètre: 1012 hPa
visibilité: More than 10 km
Détails des nuages: Claires
LIRF 300720Z VRB02KT CAVOK 11/11 Q1012 NOSIG
  

Script développé par  Saratoga-weather.org Adapté pour le modèle par  Weerstation Leuven

Vous trouverez notre info météo Également à:

WeatherCloud

Weather Underground

AWEKAS

Équipement que nous utilisons:

Programme Météo
Meteohub

Meteohub